NCAR-RAP Real-Time Weather Data

Output produced by METARs form (02 May 2016  08:14 UTC)
found at http://weather.rap.ucar.edu/surface/
 
Conditions at: KALB observed 02 May 2016  07:51 UTC
Temperature: 7.2°C (45°F)
Dewpoint: 4.4°C (40°F) [RH = 82%]
Pressure (altimeter): 30.02 inches Hg (1016.7 mb)
[Sea-level pressure: 1016.6 mb]
Winds: from the S (170 degrees) at 7 MPH (6 knots; 3.1 m/s)
Visibility: 10 or more miles (16+ km)
Ceiling: 1100 feet AGL
Clouds: overcast cloud deck at 1100 feet AGL
Present Weather: no significant weather observed at this time
KALB 020751Z 17006KT 10SM OVC011 07/04 A3002 RMK AO2 SLP166 T00720044

Conditions at: KALB observed 02 May 2016  06:51 UTC
Temperature: 6.7°C (44°F)
Dewpoint: 3.9°C (39°F) [RH = 82%]
Pressure (altimeter): 30.03 inches Hg (1017.0 mb)
[Sea-level pressure: 1017.1 mb]
Winds: calm
Visibility: 10 or more miles (16+ km)
Ceiling: 1200 feet AGL
Clouds: overcast cloud deck at 1200 feet AGL
Present Weather: no significant weather observed at this time
KALB 020651Z 00000KT 10SM OVC012 07/04 A3003 RMK AO2 DZE12 SLP171 P0000 T00670039

Conditions at: KALB observed 02 May 2016  05:51 UTC
Temperature: 6.7°C (44°F)
Dewpoint: 3.9°C (39°F) [RH = 82%]
Pressure (altimeter): 30.04 inches Hg (1017.4 mb)
[Sea-level pressure: 1017.4 mb]
Winds: from the S (170 degrees) at 7 MPH (6 knots; 3.1 m/s)
Visibility: 10 or more miles (16+ km)
Ceiling: 1400 feet AGL
Clouds: overcast cloud deck at 1400 feet AGL
Present Weather: -DZ  (light drizzle)
KALB 020551Z 17006KT 10SM -DZ OVC014 07/04 A3004 RMK AO2 DZB49 SLP174 PCPN VRY LGT P0000 60000 T00670039 10072 20067 56012

Conditions at: KALB observed 02 May 2016  05:16 UTC
Temperature: 7.2°C (45°F)
Dewpoint: 3.9°C (39°F) [RH = 80%]
Pressure (altimeter): 30.05 inches Hg (1017.7 mb)
Winds: variable direction winds at 3 MPH (3 knots; 1.6 m/s)
Visibility: 10 or more miles (16+ km)
Ceiling: 1400 feet AGL
Clouds: overcast cloud deck at 1400 feet AGL
Present Weather: no significant weather observed at this time
KALB 020516Z VRB03KT 10SM OVC014 07/04 A3005 RMK AO2 T00720039

Conditions at: KALB observed 02 May 2016  04:51 UTC
Temperature: 6.7°C (44°F)
Dewpoint: 3.3°C (38°F) [RH = 79%]
Pressure (altimeter): 30.05 inches Hg (1017.7 mb)
[Sea-level pressure: 1017.7 mb]
Winds: from the S (170 degrees) at 5 MPH (4 knots; 2.1 m/s)
Visibility: 10 or more miles (16+ km)
Ceiling: 1500 feet AGL
Clouds: overcast cloud deck at 1500 feet AGL
Present Weather: no significant weather observed at this time
KALB 020451Z 17004KT 10SM OVC015 07/03 A3005 RMK AO2 SLP177 T00670033 401220067

Conditions at: KALB observed 02 May 2016  03:51 UTC
Temperature: 7.2°C (45°F)
Dewpoint: 3.3°C (38°F) [RH = 76%]
Pressure (altimeter): 30.05 inches Hg (1017.7 mb)
[Sea-level pressure: 1017.8 mb]
Winds: from the S (170 degrees) at 6 MPH (5 knots; 2.6 m/s)
Visibility: 10 or more miles (16+ km)
Ceiling: 1700 feet AGL
Clouds: overcast cloud deck at 1700 feet AGL
Present Weather: no significant weather observed at this time
KALB 020351Z 17005KT 10SM OVC017 07/03 A3005 RMK AO2 SLP178 T00720033

Conditions at: KALB observed 02 May 2016  02:51 UTC
Temperature: 7.2°C (45°F)
Dewpoint: 3.3°C (38°F) [RH = 76%]
Pressure (altimeter): 30.08 inches Hg (1018.7 mb)
[Sea-level pressure: 1018.6 mb]
Winds: from the SSE (160 degrees) at 9 MPH (8 knots; 4.2 m/s)
Visibility: 10 or more miles (16+ km)
Ceiling: 1800 feet AGL
Clouds: overcast cloud deck at 1800 feet AGL
Present Weather: no significant weather observed at this time
KALB 020251Z 16008KT 10SM OVC018 07/03 A3008 RMK AO2 SLP186 60000 T00720033 58003

Conditions at: KALB observed 02 May 2016  01:51 UTC
Temperature: 7.2°C (45°F)
Dewpoint: 3.3°C (38°F) [RH = 76%]
Pressure (altimeter): 30.10 inches Hg (1019.4 mb)
[Sea-level pressure: 1019.2 mb]
Winds: variable direction winds at 7 MPH (6 knots; 3.1 m/s)
Visibility: 10 or more miles (16+ km)
Ceiling: 2000 feet AGL
Clouds: scattered clouds at 1800 feet AGL
overcast cloud deck at 2000 feet AGL
Present Weather: no significant weather observed at this time
KALB 020151Z VRB06KT 10SM SCT018 OVC020 07/03 A3010 RMK AO2 SLP192 T00720033

Conditions at: KALB observed 02 May 2016  00:51 UTC
Temperature: 7.2°C (45°F)
Dewpoint: 3.3°C (38°F) [RH = 76%]
Pressure (altimeter): 30.09 inches Hg (1019.0 mb)
[Sea-level pressure: 1019.0 mb]
Winds: from the SSE (150 degrees) at 6 MPH (5 knots; 2.6 m/s)
Visibility: 10 or more miles (16+ km)
Ceiling: 1700 feet AGL
Clouds: broken clouds at 1700 feet AGL
overcast cloud deck at 2000 feet AGL
Present Weather: no significant weather observed at this time
KALB 020051Z 15005KT 10SM BKN017 OVC020 07/03 A3009 RMK AO2 RAE39 SLP190 P0000 T00720033

Conditions at: KALB observed 01 May 2016  23:51 UTC
Temperature: 7.2°C (45°F)
Dewpoint: 3.9°C (39°F) [RH = 80%]
Pressure (altimeter): 30.09 inches Hg (1019.0 mb)
[Sea-level pressure: 1018.9 mb]
Winds: variable direction winds at 3 MPH (3 knots; 1.6 m/s)
Visibility: 10 or more miles (16+ km)
Ceiling: 2100 feet AGL
Clouds: broken clouds at 2100 feet AGL
overcast cloud deck at 3500 feet AGL
Present Weather: -RA  (light rain)
KALB 012351Z VRB03KT 10SM -RA BKN021 OVC035 07/04 A3009 RMK AO2 RAB12 SLP189 PCPN VRY LGT P0000 60001 T00720039 10083 20072 58011

Conditions at: KALB observed 01 May 2016  22:51 UTC
Temperature: 7.8°C (46°F)
Dewpoint: 3.3°C (38°F) [RH = 73%]
Pressure (altimeter): 30.10 inches Hg (1019.4 mb)
[Sea-level pressure: 1019.4 mb]
Winds: from the SSE (150 degrees) at 8 MPH (7 knots; 3.6 m/s)
Visibility: 10 or more miles (16+ km)
Ceiling: 2100 feet AGL
Clouds: broken clouds at 2100 feet AGL
overcast cloud deck at 3500 feet AGL
Present Weather: no significant weather observed at this time
KALB 012251Z 15007KT 10SM BKN021 OVC035 08/03 A3010 RMK AO2 SLP194 T00780033

Conditions at: KALB observed 01 May 2016  21:51 UTC
Temperature: 7.8°C (46°F)
Dewpoint: 3.9°C (39°F) [RH = 76%]
Pressure (altimeter): 30.11 inches Hg (1019.7 mb)
[Sea-level pressure: 1019.8 mb]
Winds: from the SSE (150 degrees) at 9 MPH (8 knots; 4.2 m/s)
gusting to 16 MPH (14 knots; 7.3 m/s)
Visibility: 10 or more miles (16+ km)
Ceiling: 1900 feet AGL
Clouds: broken clouds at 1900 feet AGL
overcast cloud deck at 2500 feet AGL
Present Weather: no significant weather observed at this time
KALB 012151Z 15008G14KT 10SM BKN019 OVC025 08/04 A3011 RMK AO2 SLP198 T00780039

Conditions at: KALB observed 01 May 2016  20:51 UTC
Temperature: 7.8°C (46°F)
Dewpoint: 4.4°C (40°F) [RH = 79%]
Pressure (altimeter): 30.12 inches Hg (1020.1 mb)
[Sea-level pressure: 1020.0 mb]
Winds: variable direction winds at 7 MPH (6 knots; 3.1 m/s)
gusting to 16 MPH (14 knots; 7.3 m/s)
Visibility: 10 or more miles (16+ km)
Ceiling: 1700 feet AGL
Clouds: few clouds at 1200 feet AGL
broken clouds at 1700 feet AGL
overcast cloud deck at 2500 feet AGL
Present Weather: no significant weather observed at this time
KALB 012051Z VRB06G14KT 10SM FEW012 BKN017 OVC025 08/04 A3012 RMK AO2 SLP200 60001 T00780044 58018